TAM3331 SBSP-SBCT
Flight info
| Callsign | TAM3331 |
|---|---|
| Flight time | 0h 35m |
| Altitude | 24000 |
| Route | SOVSI UZ85 RAXIT |
| Aircraft | A320/M-SDE3FGHIRWY/LB1 |
Departure
| Time | 2026-05-08 01:34 |
|---|---|
| Airport | Congonhas–Deputado Freitas Nobre Airport (SBSP) |
Arrival
| Time | 2026-05-08 02:09 |
|---|---|
| Airport | Curitiba-Afonso Pena International Airport (SBCT) |
| Time | Latitude | Longitude | Altitude | Speed | Heading |
|---|---|---|---|---|---|
| 2026-05-08 01:20 | -23.62511 | -46.65966 | 2601 ft | 0 kts | 237° |
| 2026-05-08 01:26 | -23.62501 | -46.65950 | 2600 ft | 4 kts | 233° |
| 2026-05-08 01:26 | -23.62485 | -46.65933 | 2601 ft | 4 kts | 179° |
| 2026-05-08 01:26 | -23.62466 | -46.65941 | 2600 ft | 3 kts | 147° |
| 2026-05-08 01:26 | -23.62463 | -46.65944 | 2600 ft | 0 kts | 147° |
| 2026-05-08 01:28 | -23.62469 | -46.65939 | 2601 ft | 3 kts | 143° |
| 2026-05-08 01:28 | -23.62497 | -46.65903 | 2601 ft | 9 kts | 125° |
| 2026-05-08 01:29 | -23.62545 | -46.65842 | 2602 ft | 13 kts | 140° |
| 2026-05-08 01:29 | -23.62632 | -46.65779 | 2602 ft | 18 kts | 148° |
| 2026-05-08 01:29 | -23.62741 | -46.65706 | 2602 ft | 19 kts | 147° |
| 2026-05-08 01:29 | -23.62853 | -46.65628 | 2603 ft | 19 kts | 146° |
| 2026-05-08 01:30 | -23.62970 | -46.65548 | 2603 ft | 20 kts | 149° |
| 2026-05-08 01:30 | -23.63101 | -46.65489 | 2602 ft | 21 kts | 149° |
| 2026-05-08 01:30 | -23.63233 | -46.65400 | 2602 ft | 23 kts | 148° |
| 2026-05-08 01:30 | -23.63372 | -46.65304 | 2602 ft | 24 kts | 146° |
| 2026-05-08 01:31 | -23.63490 | -46.65216 | 2601 ft | 13 kts | 140° |
| 2026-05-08 01:31 | -23.63471 | -46.65136 | 2599 ft | 12 kts | 38° |
| 2026-05-08 01:31 | -23.63430 | -46.65115 | 2601 ft | 0 kts | 326° |
| 2026-05-08 01:33 | -23.63426 | -46.65118 | 2601 ft | 8 kts | 326° |
| 2026-05-08 01:33 | -23.63132 | -46.65323 | 2610 ft | 92 kts | 327° |
| 2026-05-08 01:33 | -23.62388 | -46.65831 | 2631 ft | 154 kts | 329° |
| 2026-05-08 01:34 | -23.61471 | -46.66460 | 3361 ft | 160 kts | 330° |
| 2026-05-08 01:34 | -23.60497 | -46.67153 | 3727 ft | 171 kts | 329° |
| 2026-05-08 01:34 | -23.59450 | -46.67915 | 3956 ft | 190 kts | 328° |
| 2026-05-08 01:34 | -23.58316 | -46.68805 | 4172 ft | 214 kts | 317° |
| 2026-05-08 01:35 | -23.57633 | -46.70285 | 4651 ft | 232 kts | 287° |
| 2026-05-08 01:35 | -23.57423 | -46.72042 | 5462 ft | 235 kts | 279° |
| 2026-05-08 01:35 | -23.57353 | -46.73844 | 6104 ft | 249 kts | 269° |
| 2026-05-08 01:35 | -23.57860 | -46.75495 | 6489 ft | 276 kts | 241° |
| 2026-05-08 01:36 | -23.59079 | -46.77224 | 7200 ft | 285 kts | 236° |
| 2026-05-08 01:36 | -23.60340 | -46.78918 | 7977 ft | 289 kts | 236° |
| 2026-05-08 01:36 | -23.61619 | -46.80626 | 8738 ft | 293 kts | 236° |
| 2026-05-08 01:36 | -23.62913 | -46.82359 | 9514 ft | 296 kts | 236° |
| 2026-05-08 01:37 | -23.64219 | -46.84112 | 10211 ft | 300 kts | 236° |
| 2026-05-08 01:37 | -23.65578 | -46.85949 | 10414 ft | 323 kts | 235° |
| 2026-05-08 01:37 | -23.67021 | -46.87902 | 10724 ft | 336 kts | 235° |
| 2026-05-08 01:37 | -23.68503 | -46.89908 | 11294 ft | 342 kts | 234° |
| 2026-05-08 01:38 | -23.70008 | -46.91945 | 11868 ft | 347 kts | 234° |
| 2026-05-08 01:38 | -23.71528 | -46.94006 | 12466 ft | 351 kts | 234° |
| 2026-05-08 01:38 | -23.73069 | -46.96096 | 13036 ft | 356 kts | 234° |
| 2026-05-08 01:38 | -23.74634 | -46.98218 | 13615 ft | 360 kts | 233° |
| 2026-05-08 01:39 | -23.76215 | -47.00363 | 14146 ft | 364 kts | 233° |
| 2026-05-08 01:39 | -23.77788 | -47.02496 | 14669 ft | 367 kts | 233° |
| 2026-05-08 01:39 | -23.79396 | -47.04679 | 15225 ft | 369 kts | 234° |
| 2026-05-08 01:39 | -23.81014 | -47.06876 | 15765 ft | 371 kts | 234° |
| 2026-05-08 01:40 | -23.82638 | -47.09087 | 16318 ft | 374 kts | 234° |
| 2026-05-08 01:40 | -23.84269 | -47.11311 | 16847 ft | 376 kts | 234° |
| 2026-05-08 01:40 | -23.85911 | -47.13550 | 17380 ft | 379 kts | 234° |
| 2026-05-08 01:40 | -23.87566 | -47.15803 | 17929 ft | 381 kts | 234° |
| 2026-05-08 01:41 | -23.89230 | -47.18067 | 18448 ft | 384 kts | 234° |
| 2026-05-08 01:41 | -23.90904 | -47.20348 | 18925 ft | 386 kts | 234° |
| 2026-05-08 01:41 | -23.92586 | -47.22643 | 19443 ft | 387 kts | 234° |
| 2026-05-08 01:41 | -23.94266 | -47.24940 | 19974 ft | 387 kts | 234° |
| 2026-05-08 01:42 | -23.95930 | -47.27217 | 20509 ft | 388 kts | 234° |
| 2026-05-08 01:42 | -23.97618 | -47.29524 | 21045 ft | 389 kts | 234° |
| 2026-05-08 01:42 | -23.99311 | -47.31834 | 21573 ft | 390 kts | 234° |
| 2026-05-08 01:42 | -24.01011 | -47.34152 | 22119 ft | 391 kts | 234° |
| 2026-05-08 01:43 | -24.02717 | -47.36483 | 22647 ft | 392 kts | 234° |
| 2026-05-08 01:43 | -24.04424 | -47.38819 | 23169 ft | 393 kts | 234° |
| 2026-05-08 01:43 | -24.06132 | -47.41161 | 23668 ft | 394 kts | 234° |
| 2026-05-08 01:43 | -24.07846 | -47.43512 | 23902 ft | 395 kts | 234° |
| 2026-05-08 01:44 | -24.09563 | -47.45836 | 23964 ft | 388 kts | 231° |
| 2026-05-08 01:44 | -24.11507 | -47.47826 | 23977 ft | 380 kts | 220° |
| 2026-05-08 01:44 | -24.13685 | -47.49453 | 23974 ft | 378 kts | 220° |
| 2026-05-08 01:44 | -24.15470 | -47.51514 | 23973 ft | 374 kts | 238° |
| 2026-05-08 01:45 | -24.16970 | -47.53870 | 23963 ft | 379 kts | 238° |
| 2026-05-08 01:45 | -24.18492 | -47.56238 | 23952 ft | 380 kts | 237° |
| 2026-05-08 01:45 | -24.20016 | -47.58563 | 23953 ft | 381 kts | 237° |
| 2026-05-08 01:45 | -24.21582 | -47.60909 | 23959 ft | 381 kts | 237° |
| 2026-05-08 01:46 | -24.23165 | -47.63242 | 23953 ft | 381 kts | 237° |
| 2026-05-08 01:46 | -24.24762 | -47.65561 | 23949 ft | 382 kts | 234° |
| 2026-05-08 01:46 | -24.26684 | -47.67597 | 23950 ft | 387 kts | 224° |
| 2026-05-08 01:46 | -24.28735 | -47.69500 | 23948 ft | 387 kts | 224° |
| 2026-05-08 01:47 | -24.30791 | -47.71406 | 23950 ft | 387 kts | 224° |
| 2026-05-08 01:47 | -24.32806 | -47.73273 | 23935 ft | 387 kts | 224° |
| 2026-05-08 01:47 | -24.34050 | -47.74486 | 23931 ft | 386 kts | 226° |
| 2026-05-08 01:48 | -24.38088 | -47.78392 | 23943 ft | 387 kts | 224° |
| 2026-05-08 01:48 | -24.40131 | -47.80320 | 23938 ft | 387 kts | 225° |
| 2026-05-08 01:48 | -24.42171 | -47.82254 | 23943 ft | 387 kts | 225° |
| 2026-05-08 01:48 | -24.44205 | -47.84198 | 23941 ft | 387 kts | 225° |
| 2026-05-08 01:49 | -24.46204 | -47.86119 | 23937 ft | 387 kts | 225° |
| 2026-05-08 01:49 | -24.48225 | -47.88072 | 23939 ft | 387 kts | 225° |
| 2026-05-08 01:49 | -24.50272 | -47.90057 | 23938 ft | 387 kts | 225° |
| 2026-05-08 01:49 | -24.52264 | -47.91988 | 23936 ft | 387 kts | 225° |
| 2026-05-08 01:50 | -24.54288 | -47.93950 | 23939 ft | 387 kts | 225° |
| 2026-05-08 01:50 | -24.56315 | -47.95910 | 23936 ft | 388 kts | 225° |
| 2026-05-08 01:50 | -24.58342 | -47.97870 | 23948 ft | 387 kts | 225° |
| 2026-05-08 01:50 | -24.60363 | -47.99832 | 23953 ft | 387 kts | 225° |
| 2026-05-08 01:51 | -24.62387 | -48.01796 | 23946 ft | 387 kts | 226° |
| 2026-05-08 01:51 | -24.64410 | -48.03758 | 23945 ft | 388 kts | 226° |
| 2026-05-08 01:51 | -24.66434 | -48.05721 | 23950 ft | 388 kts | 226° |
| 2026-05-08 01:51 | -24.68434 | -48.07663 | 23949 ft | 388 kts | 226° |
| 2026-05-08 01:52 | -24.70458 | -48.09629 | 23946 ft | 388 kts | 226° |
| 2026-05-08 01:52 | -24.72479 | -48.11595 | 23944 ft | 388 kts | 226° |
| 2026-05-08 01:52 | -24.74495 | -48.13558 | 23944 ft | 388 kts | 226° |
| 2026-05-08 01:52 | -24.76519 | -48.15528 | 23946 ft | 388 kts | 226° |
| 2026-05-08 01:53 | -24.78545 | -48.17499 | 23952 ft | 388 kts | 226° |
| 2026-05-08 01:53 | -24.80564 | -48.19468 | 23956 ft | 388 kts | 226° |
| 2026-05-08 01:53 | -24.82592 | -48.21446 | 23955 ft | 388 kts | 226° |
| 2026-05-08 01:53 | -24.84613 | -48.23418 | 23959 ft | 388 kts | 226° |
| 2026-05-08 01:54 | -24.86635 | -48.25391 | 23708 ft | 390 kts | 226° |
| 2026-05-08 01:54 | -24.88643 | -48.27347 | 23198 ft | 390 kts | 226° |
| 2026-05-08 01:54 | -24.90674 | -48.29324 | 22752 ft | 387 kts | 226° |
| 2026-05-08 01:54 | -24.92688 | -48.31285 | 22313 ft | 385 kts | 226° |
| 2026-05-08 01:55 | -24.94684 | -48.33236 | 21868 ft | 383 kts | 226° |
| 2026-05-08 01:55 | -24.96667 | -48.35178 | 21419 ft | 380 kts | 226° |
| 2026-05-08 01:55 | -24.98643 | -48.37114 | 20962 ft | 378 kts | 226° |
| 2026-05-08 01:55 | -25.00608 | -48.39038 | 20501 ft | 377 kts | 226° |
| 2026-05-08 01:56 | -25.02567 | -48.40952 | 20040 ft | 375 kts | 226° |
| 2026-05-08 01:56 | -25.04523 | -48.42862 | 19574 ft | 374 kts | 226° |
| 2026-05-08 01:56 | -25.06442 | -48.44741 | 19121 ft | 373 kts | 226° |
| 2026-05-08 01:56 | -25.08387 | -48.46647 | 18649 ft | 373 kts | 226° |
| 2026-05-08 01:57 | -25.10326 | -48.48552 | 18182 ft | 373 kts | 225° |
| 2026-05-08 01:57 | -25.12266 | -48.50457 | 17657 ft | 372 kts | 225° |
| 2026-05-08 01:57 | -25.14202 | -48.52355 | 17202 ft | 370 kts | 225° |
| 2026-05-08 01:57 | -25.16124 | -48.54239 | 16735 ft | 369 kts | 226° |
| 2026-05-08 01:58 | -25.18013 | -48.56092 | 16275 ft | 367 kts | 226° |
| 2026-05-08 01:58 | -25.19917 | -48.57963 | 15816 ft | 365 kts | 226° |
| 2026-05-08 01:58 | -25.21818 | -48.59832 | 15347 ft | 364 kts | 226° |
| 2026-05-08 01:58 | -25.23712 | -48.61695 | 14889 ft | 363 kts | 225° |
| 2026-05-08 01:59 | -25.25598 | -48.63551 | 14428 ft | 362 kts | 225° |
| 2026-05-08 01:59 | -25.27480 | -48.65403 | 13979 ft | 362 kts | 225° |
| 2026-05-08 01:59 | -25.29358 | -48.67252 | 13491 ft | 361 kts | 225° |
| 2026-05-08 01:59 | -25.31231 | -48.69098 | 13004 ft | 359 kts | 226° |
| 2026-05-08 02:00 | -25.33067 | -48.70908 | 12565 ft | 356 kts | 226° |
| 2026-05-08 02:00 | -25.34909 | -48.72721 | 12128 ft | 353 kts | 226° |
| 2026-05-08 02:00 | -25.36731 | -48.74518 | 11686 ft | 350 kts | 226° |
| 2026-05-08 02:00 | -25.38548 | -48.76309 | 11240 ft | 348 kts | 226° |
| 2026-05-08 02:01 | -25.40351 | -48.78092 | 10807 ft | 346 kts | 226° |
| 2026-05-08 02:01 | -25.42135 | -48.79866 | 10358 ft | 344 kts | 227° |
| 2026-05-08 02:01 | -25.43335 | -48.81062 | 10165 ft | 340 kts | 227° |
| 2026-05-08 02:01 | -25.45159 | -48.82733 | 10066 ft | 327 kts | 225° |
| 2026-05-08 02:02 | -25.46839 | -48.84362 | 9955 ft | 315 kts | 227° |
| 2026-05-08 02:02 | -25.48427 | -48.85973 | 9829 ft | 305 kts | 229° |
| 2026-05-08 02:02 | -25.49972 | -48.87565 | 9508 ft | 302 kts | 229° |
| 2026-05-08 02:02 | -25.51517 | -48.89154 | 8967 ft | 307 kts | 228° |
| 2026-05-08 02:03 | -25.53129 | -48.90805 | 8297 ft | 322 kts | 228° |
| 2026-05-08 02:03 | -25.54791 | -48.92494 | 7852 ft | 325 kts | 227° |
| 2026-05-08 02:03 | -25.56465 | -48.94175 | 7430 ft | 325 kts | 227° |
| 2026-05-08 02:03 | -25.58145 | -48.95849 | 7066 ft | 322 kts | 227° |
| 2026-05-08 02:04 | -25.59736 | -48.97476 | 6983 ft | 308 kts | 229° |
| 2026-05-08 02:04 | -25.61242 | -48.99072 | 6987 ft | 288 kts | 230° |
| 2026-05-08 02:04 | -25.62620 | -49.00549 | 6992 ft | 263 kts | 231° |
| 2026-05-08 02:04 | -25.63810 | -49.01945 | 6905 ft | 232 kts | 246° |
| 2026-05-08 02:05 | -25.64277 | -49.03487 | 6573 ft | 200 kts | 277° |
| 2026-05-08 02:05 | -25.63992 | -49.04915 | 6145 ft | 186 kts | 304° |
| 2026-05-08 02:05 | -25.63187 | -49.05972 | 5732 ft | 177 kts | 318° |
| 2026-05-08 02:05 | -25.62331 | -49.06936 | 5401 ft | 173 kts | 317° |
| 2026-05-08 02:06 | -25.61514 | -49.07857 | 5164 ft | 161 kts | 317° |
| 2026-05-08 02:06 | -25.60765 | -49.08700 | 4973 ft | 149 kts | 319° |
| 2026-05-08 02:06 | -25.60044 | -49.09510 | 4785 ft | 146 kts | 319° |
| 2026-05-08 02:06 | -25.59328 | -49.10312 | 4601 ft | 146 kts | 318° |
| 2026-05-08 02:07 | -25.58617 | -49.11110 | 4402 ft | 144 kts | 318° |
| 2026-05-08 02:07 | -25.57901 | -49.11911 | 4212 ft | 146 kts | 318° |
| 2026-05-08 02:07 | -25.57190 | -49.12709 | 4027 ft | 144 kts | 317° |
| 2026-05-08 02:07 | -25.56698 | -49.13259 | 3929 ft | 145 kts | 317° |
| 2026-05-08 02:08 | -25.55984 | -49.14061 | 3707 ft | 147 kts | 316° |
| 2026-05-08 02:08 | -25.55273 | -49.14858 | 3534 ft | 145 kts | 316° |
| 2026-05-08 02:08 | -25.54563 | -49.15658 | 3303 ft | 146 kts | 316° |
| 2026-05-08 02:08 | -25.53847 | -49.16459 | 3102 ft | 147 kts | 316° |
| 2026-05-08 02:09 | -25.53152 | -49.17239 | 2989 ft | 128 kts | 314° |
| 2026-05-08 02:09 | -25.52719 | -49.17720 | 2988 ft | 45 kts | 315° |
| 2026-05-08 02:09 | -25.52597 | -49.17856 | 2989 ft | 22 kts | 315° |